Time;durP1;ratioP1;P1;durP2;ratioP2;P2;SDS_P1;SDS_P2;PMS_P1;PMS_P2;Temp;Humidity;BMP_temperature;BMP_pressure;BME280_temperature;BME280_humidity;BME280_pressure;Samples;Min_cycle;Max_cycle;Signal;HPM_P1;HPM_P2
2023/05/19 00:01:42;;;;;;;9.00;2.20;;;13.90;1.00;;;;;;5009054;28;20205;-74
2023/05/19 00:04:11;;;;;;;7.20;2.20;;;13.80;1.00;;;;;;5008269;28;20210;-74
2023/05/19 00:06:37;;;;;;;7.93;2.57;;;13.80;1.00;;;;;;5010255;28;20998;-74
2023/05/19 00:09:08;;;;;;;9.37;2.20;;;13.80;1.00;;;;;;5008944;28;20441;-74
2023/05/19 00:11:35;;;;;;;4.60;2.40;;;13.80;1.00;;;;;;5009056;28;20541;-74
2023/05/19 00:14:01;;;;;;;5.27;2.30;;;13.70;1.00;;;;;;5006165;28;20445;-73
2023/05/19 00:16:28;;;;;;;6.03;2.47;;;13.70;1.00;;;;;;5007717;28;20532;-74
2023/05/19 00:18:55;;;;;;;4.53;2.40;;;13.70;1.00;;;;;;5009835;28;20437;-75
2023/05/19 00:21:21;;;;;;;5.37;2.23;;;13.60;1.00;;;;;;5008093;28;20639;-73
2023/05/19 00:23:46;;;;;;;6.47;2.60;;;13.70;1.00;;;;;;5006723;28;20544;-74
2023/05/19 00:26:12;;;;;;;9.70;2.80;;;13.60;1.00;;;;;;5008882;28;20214;-74
2023/05/19 00:28:38;;;;;;;7.73;2.40;;;13.60;1.00;;;;;;5008735;28;20186;-74
2023/05/19 00:31:07;;;;;;;6.00;2.30;;;13.60;1.00;;;;;;5010262;28;20764;-73
2023/05/19 00:33:33;;;;;;;3.77;2.17;;;13.50;1.00;;;;;;5007267;28;20560;-74
2023/05/19 00:36:01;;;;;;;4.63;1.97;;;13.50;1.00;;;;;;5008252;28;20452;-73
2023/05/19 00:38:27;;;;;;;4.73;2.37;;;13.50;1.00;;;;;;5007880;28;20444;-74
2023/05/19 00:40:53;;;;;;;6.27;2.50;;;13.50;1.00;;;;;;5009665;28;20456;-74
2023/05/19 00:43:18;;;;;;;5.03;2.30;;;13.50;1.00;;;;;;5007225;28;20241;-74
2023/05/19 00:45:45;;;;;;;4.10;2.33;;;13.50;1.00;;;;;;5007788;28;20695;-74
2023/05/19 00:48:11;;;;;;;7.50;2.43;;;13.40;1.00;;;;;;5005539;28;20183;-75
2023/05/19 00:50:36;;;;;;;6.70;2.30;;;13.40;1.00;;;;;;5005048;28;20449;-74
2023/05/19 00:53:02;;;;;;;4.40;2.20;;;13.40;1.00;;;;;;5008766;28;20194;-74
2023/05/19 00:55:30;;;;;;;3.17;2.07;;;13.40;1.00;;;;;;5009184;28;20225;-74
2023/05/19 00:57:56;;;;;;;4.90;2.33;;;13.30;1.00;;;;;;5007984;28;20686;-74
2023/05/19 01:00:22;;;;;;;5.33;2.10;;;13.40;1.00;;;;;;5009281;28;20553;-75
2023/05/19 01:02:49;;;;;;;5.20;2.20;;;13.40;1.00;;;;;;5007525;28;20218;-74
2023/05/19 01:05:15;;;;;;;5.57;2.20;;;13.30;1.00;;;;;;5005649;28;20599;-74
2023/05/19 01:07:41;;;;;;;6.70;2.73;;;13.30;1.00;;;;;;5008466;28;20460;-74
2023/05/19 01:10:07;;;;;;;5.00;2.40;;;13.30;1.00;;;;;;5008060;28;20425;-73
2023/05/19 01:12:33;;;;;;;3.43;2.20;;;13.30;1.00;;;;;;5009036;28;20178;-74
2023/05/19 01:14:59;;;;;;;7.73;2.67;;;13.30;1.00;;;;;;5008354;28;20442;-74
2023/05/19 01:17:39;;;;;;;6.70;2.73;;;13.30;1.00;;;;;;5006925;28;20958;-74
2023/05/19 01:20:15;;;;;;;5.30;2.47;;;13.30;1.00;;;;;;5006929;28;20437;-75
2023/05/19 01:23:22;;;;;;;3.73;2.07;;;13.30;1.00;;;;;;5008304;28;20523;-74
2023/05/19 01:26:10;;;;;;;6.27;3.00;;;13.30;1.00;;;;;;5007482;28;20429;-74
2023/05/19 01:29:01;;;;;;;7.60;2.70;;;13.30;1.00;;;;;;5007192;28;20500;-74
2023/05/19 01:31:27;;;;;;;5.20;2.20;;;13.20;1.00;;;;;;5007391;28;20481;-74
2023/05/19 01:33:53;;;;;;;7.90;2.70;;;13.20;1.00;;;;;;5007844;28;20845;-74
2023/05/19 01:36:21;;;;;;;7.30;2.23;;;13.20;1.00;;;;;;5006944;28;20449;-74
2023/05/19 01:38:50;;;;;;;6.57;2.60;;;13.20;1.00;;;;;;5006938;28;20885;-75
2023/05/19 01:41:17;;;;;;;6.20;2.17;;;13.20;1.00;;;;;;5007207;28;20532;-73
2023/05/19 01:43:43;;;;;;;4.87;2.20;;;13.20;1.00;;;;;;5007876;28;20604;-74
2023/05/19 01:46:09;;;;;;;6.70;2.90;;;13.10;1.00;;;;;;5005972;28;20441;-74
2023/05/19 01:48:35;;;;;;;9.20;2.43;;;13.10;1.00;;;;;;5007683;28;20437;-74
2023/05/19 01:51:01;;;;;;;5.50;2.40;;;13.10;1.00;;;;;;5007583;28;20461;-74
2023/05/19 01:53:26;;;;;;;6.70;2.27;;;13.20;1.00;;;;;;5006500;28;20441;-73
2023/05/19 01:55:54;;;;;;;4.90;2.70;;;13.10;1.00;;;;;;5008653;28;20673;-74
2023/05/19 01:58:44;;;;;;;4.20;2.00;;;13.10;1.00;;;;;;5007460;28;20752;-74
2023/05/19 02:01:43;;;;;;;10.23;2.53;;;13.10;1.00;;;;;;5004804;28;20464;-74
2023/05/19 02:04:27;;;;;;;4.90;2.33;;;13.10;1.00;;;;;;5004508;28;20457;-74
2023/05/19 02:07:14;;;;;;;3.40;2.13;;;13.10;1.00;;;;;;5006179;28;20452;-74
2023/05/19 02:10:17;;;;;;;5.87;2.33;;;13.10;1.00;;;;;;5003275;28;20447;-73
2023/05/19 02:12:44;;;;;;;5.20;2.20;;;13.10;1.00;;;;;;5004618;28;20811;-74
2023/05/19 02:15:15;;;;;;;11.63;2.73;;;13.10;1.00;;;;;;5006283;28;20936;-74
2023/05/19 02:17:47;;;;;;;6.57;2.50;;;13.10;1.00;;;;;;5003698;28;20448;-74
2023/05/19 02:20:14;;;;;;;5.40;2.27;;;13.10;1.00;;;;;;5007617;28;20457;-74
2023/05/19 02:22:40;;;;;;;4.10;2.30;;;13.10;1.00;;;;;;5007354;28;20434;-74
2023/05/19 02:25:06;;;;;;;6.03;2.40;;;13.10;1.00;;;;;;5005660;28;20847;-70
2023/05/19 02:27:32;;;;;;;6.27;2.27;;;13.10;1.00;;;;;;5007932;28;20206;-74
2023/05/19 02:29:58;;;;;;;4.13;2.10;;;13.10;1.00;;;;;;5006852;28;20516;-75
2023/05/19 02:32:24;;;;;;;8.43;2.63;;;13.10;1.00;;;;;;5006674;28;20524;-72
2023/05/19 02:34:49;;;;;;;3.33;2.33;;;13.10;1.00;;;;;;5007142;28;20677;-74
2023/05/19 02:37:15;;;;;;;3.83;2.10;;;13.10;1.00;;;;;;5005316;28;20261;-74
2023/05/19 02:39:41;;;;;;;5.70;2.20;;;13.10;1.00;;;;;;5008100;28;20248;-74
2023/05/19 02:42:07;;;;;;;7.50;2.23;;;13.10;1.00;;;;;;5006773;28;20229;-72
2023/05/19 02:44:32;;;;;;;4.87;2.70;;;13.10;1.00;;;;;;5005425;28;21013;-74
2023/05/19 02:46:58;;;;;;;3.13;2.40;;;13.10;1.00;;;;;;5007442;28;20192;-74
2023/05/19 02:49:23;;;;;;;7.53;3.00;;;13.20;1.00;;;;;;5006231;28;20193;-74
2023/05/19 02:51:49;;;;;;;3.03;1.93;;;13.20;1.00;;;;;;5004807;28;20221;-75
2023/05/19 02:54:14;;;;;;;6.43;2.20;;;13.20;1.00;;;;;;5004999;28;20232;-74
2023/05/19 02:56:40;;;;;;;5.43;2.10;;;13.20;1.00;;;;;;4999294;28;20191;-74
2023/05/19 02:59:05;;;;;;;4.00;2.33;;;13.20;1.00;;;;;;5007128;28;20190;-74
2023/05/19 03:01:31;;;;;;;7.00;2.40;;;13.20;1.00;;;;;;5004782;28;20218;-74
2023/05/19 03:03:57;;;;;;;4.60;2.43;;;13.30;1.00;;;;;;5007326;28;20752;-74
2023/05/19 03:06:23;;;;;;;5.03;2.20;;;13.30;1.00;;;;;;5004904;28;20190;-73
2023/05/19 03:08:49;;;;;;;6.33;2.50;;;13.30;1.00;;;;;;5006165;28;20171;-74
2023/05/19 03:11:14;;;;;;;4.20;2.30;;;13.30;1.00;;;;;;5006391;28;20628;-75
2023/05/19 03:13:40;;;;;;;5.60;2.10;;;13.20;1.00;;;;;;5006146;28;20540;-74
2023/05/19 03:16:06;;;;;;;5.63;2.27;;;13.20;1.00;;;;;;5005645;28;20197;-74
2023/05/19 03:18:32;;;;;;;4.97;2.23;;;13.20;1.00;;;;;;5003725;28;20186;-74
2023/05/19 03:20:58;;;;;;;3.83;2.00;;;13.30;1.00;;;;;;5006977;28;21133;-74
2023/05/19 03:23:23;;;;;;;6.40;2.63;;;13.30;1.00;;;;;;5006856;28;20213;-74
2023/05/19 03:25:49;;;;;;;5.80;2.40;;;13.30;1.00;;;;;;5005915;28;20237;-75
2023/05/19 03:28:16;;;;;;;5.33;2.10;;;13.30;1.00;;;;;;5005490;28;20182;-75
2023/05/19 03:30:41;;;;;;;6.50;2.47;;;13.40;1.00;;;;;;5006028;28;20193;-74
2023/05/19 03:33:07;;;;;;;7.30;2.73;;;13.40;1.00;;;;;;5005995;28;20498;-73
2023/05/19 03:35:32;;;;;;;4.70;2.30;;;13.50;1.00;;;;;;5006923;28;20181;-74
2023/05/19 03:37:58;;;;;;;4.20;2.53;;;13.40;1.00;;;;;;5005221;28;20188;-74
2023/05/19 03:40:23;;;;;;;3.87;1.90;;;13.50;1.00;;;;;;5003433;28;20221;-74
2023/05/19 03:42:49;;;;;;;5.30;2.10;;;13.40;1.00;;;;;;5002753;28;20570;-74
2023/05/19 03:45:14;;;;;;;6.47;2.50;;;13.40;1.00;;;;;;5005656;28;20265;-74
2023/05/19 03:47:40;;;;;;;6.90;2.40;;;13.40;1.00;;;;;;5006935;28;20239;-74
2023/05/19 03:50:06;;;;;;;5.07;2.50;;;13.30;1.00;;;;;;5005280;28;20293;-74
2023/05/19 03:52:32;;;;;;;6.43;2.20;;;13.30;1.00;;;;;;5006379;28;20527;-74
2023/05/19 03:54:57;;;;;;;8.90;2.40;;;13.30;1.00;;;;;;5005592;28;20179;-74
2023/05/19 03:57:23;;;;;;;3.37;2.07;;;13.30;1.00;;;;;;5005709;28;20683;-74
2023/05/19 03:59:48;;;;;;;4.87;2.33;;;13.30;1.00;;;;;;5006930;28;20228;-73
2023/05/19 04:02:14;;;;;;;5.20;2.53;;;13.30;1.00;;;;;;5005366;28;20174;-73
2023/05/19 04:04:40;;;;;;;6.30;2.87;;;13.30;1.00;;;;;;5005967;28;20568;-71
2023/05/19 04:07:06;;;;;;;8.90;2.60;;;13.30;1.00;;;;;;5004642;28;20175;-74
2023/05/19 04:09:33;;;;;;;5.50;2.93;;;13.30;1.00;;;;;;5004214;28;20183;-74
2023/05/19 04:12:00;;;;;;;6.43;2.33;;;13.30;1.00;;;;;;5002428;28;20203;-74
2023/05/19 04:14:25;;;;;;;6.13;2.73;;;13.30;1.00;;;;;;5003574;28;20844;-74
2023/05/19 04:16:52;;;;;;;9.47;2.90;;;13.30;1.00;;;;;;5005233;28;20463;-74
2023/05/19 04:19:18;;;;;;;6.63;2.80;;;13.30;1.00;;;;;;5004022;28;20185;-73
2023/05/19 04:21:43;;;;;;;4.90;2.03;;;13.30;1.00;;;;;;5007226;28;20465;-74
2023/05/19 04:24:09;;;;;;;6.43;2.27;;;13.30;1.00;;;;;;5006217;28;20222;-74
2023/05/19 04:26:37;;;;;;;6.37;2.47;;;13.30;1.00;;;;;;5006010;28;20191;-73
2023/05/19 04:29:03;;;;;;;3.80;1.90;;;13.30;1.00;;;;;;5009573;28;20187;-74
2023/05/19 04:31:29;;;;;;;6.70;2.60;;;13.30;1.00;;;;;;5007150;28;20453;-74
2023/05/19 04:33:54;;;;;;;3.00;2.60;;;13.30;1.00;;;;;;5009012;28;20445;-74
2023/05/19 04:36:20;;;;;;;5.87;2.40;;;13.30;1.00;;;;;;5009527;28;20182;-74
2023/05/19 04:38:46;;;;;;;4.10;2.40;;;13.30;1.00;;;;;;5007578;28;20510;-74
2023/05/19 04:41:12;;;;;;;9.30;2.93;;;13.30;1.00;;;;;;5009912;28;20971;-74
2023/05/19 04:43:40;;;;;;;7.33;2.57;;;13.20;1.00;;;;;;5006240;28;20530;-74
2023/05/19 04:46:07;;;;;;;5.10;2.20;;;13.20;1.00;;;;;;5007936;28;20553;-74
2023/05/19 04:48:32;;;;;;;4.60;2.33;;;13.20;1.00;;;;;;5007520;28;20437;-74
2023/05/19 04:51:00;;;;;;;4.80;2.93;;;13.30;1.00;;;;;;5009175;28;20480;-74
2023/05/19 04:53:28;;;;;;;7.53;2.53;;;13.30;1.00;;;;;;5007708;28;20661;-74
2023/05/19 04:55:55;;;;;;;4.90;2.23;;;13.30;1.00;;;;;;5007395;28;20556;-74
2023/05/19 04:58:24;;;;;;;3.87;2.40;;;13.30;1.00;;;;;;5009127;28;20456;-74
2023/05/19 05:00:50;;;;;;;3.30;2.17;;;13.40;1.00;;;;;;5008684;28;21049;-75
2023/05/19 05:03:16;;;;;;;6.63;2.10;;;13.50;1.00;;;;;;5006226;28;20552;-73
2023/05/19 05:05:42;;;;;;;4.90;2.50;;;13.60;1.00;;;;;;5008053;28;20660;-77
2023/05/19 05:08:09;;;;;;;3.80;2.33;;;13.70;1.00;;;;;;5006115;28;20441;-75
2023/05/19 05:10:35;;;;;;;2.97;2.10;;;13.70;1.00;;;;;;5007852;28;20272;-73
2023/05/19 05:13:01;;;;;;;8.20;2.40;;;13.90;1.00;;;;;;5006783;28;20440;-73
2023/05/19 05:15:28;;;;;;;11.40;2.73;;;14.00;1.00;;;;;;5005444;28;20186;-74
2023/05/19 05:17:54;;;;;;;4.23;2.83;;;14.10;1.00;;;;;;5008937;28;20689;-74
2023/05/19 05:20:20;;;;;;;4.80;2.20;;;14.20;1.00;;;;;;5007787;28;20465;-74
2023/05/19 05:22:46;;;;;;;6.03;2.57;;;14.40;1.00;;;;;;5006606;28;20195;-74
2023/05/19 05:25:12;;;;;;;5.73;2.60;;;14.50;1.00;;;;;;5008860;28;20448;-74
2023/05/19 05:27:38;;;;;;;6.60;2.50;;;14.60;1.00;;;;;;5007760;28;20473;-74
2023/05/19 05:30:04;;;;;;;5.83;2.50;;;14.80;1.00;;;;;;5007224;28;20553;-74
2023/05/19 05:32:30;;;;;;;4.87;2.50;;;14.90;1.00;;;;;;5007283;28;20605;-74
2023/05/19 05:34:55;;;;;;;6.20;2.77;;;15.10;1.00;;;;;;5006440;28;20434;-74
2023/05/19 05:37:21;;;;;;;8.13;2.90;;;15.20;1.00;;;;;;5007004;28;20545;-74
2023/05/19 05:39:46;;;;;;;4.73;2.90;;;15.20;1.00;;;;;;5007055;28;20182;-74
2023/05/19 05:42:12;;;;;;;5.10;2.93;;;15.30;1.00;;;;;;5006461;28;20673;-73
2023/05/19 05:44:37;;;;;;;6.33;2.87;;;15.20;1.00;;;;;;5007713;28;20269;-74
2023/05/19 05:47:04;;;;;;;6.80;2.57;;;15.20;1.00;;;;;;5006330;28;20198;-74
2023/05/19 05:49:29;;;;;;;9.40;2.70;;;15.20;1.00;;;;;;5005850;28;20189;-74
2023/05/19 05:51:55;;;;;;;6.53;2.60;;;15.00;1.00;;;;;;5005571;28;20482;-74
2023/05/19 05:54:22;;;;;;;3.83;2.20;;;15.10;1.00;;;;;;5000783;28;20297;-70
2023/05/19 05:56:48;;;;;;;9.00;2.87;;;15.10;1.00;;;;;;4997693;28;20189;-71
2023/05/19 05:59:14;;;;;;;5.53;2.90;;;15.20;1.00;;;;;;5003729;28;20817;-73
2023/05/19 06:01:40;;;;;;;7.27;2.70;;;15.20;1.00;;;;;;5008223;28;20465;-72
2023/05/19 06:04:06;;;;;;;7.17;2.40;;;15.20;1.00;;;;;;5007632;28;20284;-71
2023/05/19 06:06:32;;;;;;;7.73;3.40;;;15.20;1.00;;;;;;5007700;28;20501;-73
2023/05/19 06:08:57;;;;;;;8.30;2.70;;;15.30;1.00;;;;;;5005889;28;20190;-70
2023/05/19 06:11:23;;;;;;;3.83;2.60;;;15.10;1.00;;;;;;5011897;28;20213;-72
2023/05/19 06:13:49;;;;;;;4.27;2.70;;;15.10;1.00;;;;;;5012497;28;20195;-72
2023/05/19 06:16:14;;;;;;;7.93;2.73;;;15.10;1.00;;;;;;5014887;28;20484;-73
2023/05/19 06:18:40;;;;;;;6.80;3.50;;;15.40;1.00;;;;;;5015943;28;20198;-73
2023/05/19 06:21:05;;;;;;;5.67;2.67;;;15.50;1.00;;;;;;5019124;28;20257;-71
2023/05/19 06:23:31;;;;;;;4.80;2.60;;;15.60;1.00;;;;;;5018339;28;20265;-72
2023/05/19 06:25:56;;;;;;;5.50;3.10;;;15.70;1.00;;;;;;5017250;28;20190;-72
2023/05/19 06:28:22;;;;;;;4.93;2.60;;;15.70;1.00;;;;;;5009579;28;20665;-72
2023/05/19 06:30:48;;;;;;;6.83;2.60;;;15.80;1.00;;;;;;5005961;28;20210;-71
2023/05/19 06:33:13;;;;;;;10.60;2.77;;;15.90;1.00;;;;;;5006013;28;20180;-74
2023/05/19 06:35:39;;;;;;;12.10;2.80;;;16.00;1.00;;;;;;5008183;28;20202;-72
2023/05/19 06:38:04;;;;;;;5.03;2.70;;;16.00;1.00;;;;;;5004141;28;20186;-72
2023/05/19 06:40:30;;;;;;;9.80;3.00;;;16.10;1.00;;;;;;5007324;28;20309;-71
2023/05/19 06:42:55;;;;;;;5.00;2.87;;;16.10;1.00;;;;;;5001198;28;20203;-72
2023/05/19 06:45:22;;;;;;;12.20;3.37;;;16.20;1.00;;;;;;5004032;28;20552;-72
2023/05/19 06:47:48;;;;;;;4.47;2.90;;;16.20;1.00;;;;;;5008175;28;20186;-71
2023/05/19 06:50:13;;;;;;;3.53;2.50;;;16.30;1.00;;;;;;5007451;28;20459;-71
2023/05/19 06:52:39;;;;;;;8.93;3.03;;;16.40;1.00;;;;;;5006433;28;20264;-72
2023/05/19 06:55:05;;;;;;;7.83;3.10;;;16.60;1.00;;;;;;5012435;28;20181;-72
2023/05/19 06:57:31;;;;;;;5.33;2.83;;;16.80;1.00;;;;;;5006391;28;20967;-73
2023/05/19 06:59:56;;;;;;;6.77;3.20;;;17.00;1.00;;;;;;5008017;28;20182;-73
2023/05/19 07:02:22;;;;;;;4.53;3.10;;;17.00;1.00;;;;;;5007839;28;20188;-73
2023/05/19 07:04:47;;;;;;;6.20;3.40;;;17.00;1.00;;;;;;5003845;28;20547;-73
2023/05/19 07:07:13;;;;;;;6.47;3.17;;;17.10;1.00;;;;;;5008233;28;20179;-74
2023/05/19 07:09:39;;;;;;;5.20;3.37;;;17.60;1.00;;;;;;5004198;28;20178;-73
2023/05/19 07:12:05;;;;;;;8.97;3.27;;;17.30;1.00;;;;;;5006204;28;20210;-73
2023/05/19 07:14:30;;;;;;;6.60;3.23;;;17.40;1.00;;;;;;5004761;28;20190;-74
2023/05/19 07:16:56;;;;;;;5.97;3.23;;;17.60;1.00;;;;;;5006282;28;20245;-73
2023/05/19 07:19:22;;;;;;;5.93;3.20;;;17.60;1.00;;;;;;5017752;23;20231;-75
2023/05/19 07:21:48;;;;;;;5.43;2.97;;;17.70;1.00;;;;;;4988174;28;20211;-72
2023/05/19 07:24:13;;;;;;;4.90;3.13;;;18.00;1.00;;;;;;4980289;28;20610;-73
2023/05/19 07:26:40;;;;;;;4.67;3.00;;;18.10;1.00;;;;;;4976945;28;20191;-73
2023/05/19 07:29:05;;;;;;;7.83;3.30;;;18.30;1.00;;;;;;4980085;28;20273;-72
2023/05/19 07:31:31;;;;;;;7.50;3.27;;;18.30;1.00;;;;;;4981694;28;20556;-73
2023/05/19 07:33:57;;;;;;;5.30;2.63;;;18.20;1.00;;;;;;4981256;28;20195;-74
2023/05/19 07:36:22;;;;;;;7.10;3.20;;;18.20;1.00;;;;;;4987513;28;20187;-74
2023/05/19 07:38:48;;;;;;;7.87;2.90;;;18.20;1.00;;;;;;4979440;28;20473;-74
2023/05/19 07:41:14;;;;;;;6.10;3.27;;;18.30;1.00;;;;;;4983056;28;20203;-74
2023/05/19 07:43:39;;;;;;;6.37;2.87;;;18.50;1.00;;;;;;4982970;28;20199;-74
2023/05/19 07:46:05;;;;;;;6.77;3.07;;;18.80;1.00;;;;;;4980109;28;20269;-75
2023/05/19 07:48:31;;;;;;;6.20;2.90;;;19.00;1.00;;;;;;4984975;28;20661;-74
2023/05/19 07:50:56;;;;;;;7.10;3.13;;;19.10;1.00;;;;;;4986019;28;20206;-74
2023/05/19 07:53:22;;;;;;;5.80;2.90;;;19.30;1.00;;;;;;4985755;28;20524;-73
2023/05/19 07:55:48;;;;;;;6.30;3.07;;;19.50;1.00;;;;;;4986439;28;20270;-75
2023/05/19 07:58:14;;;;;;;7.50;3.20;;;19.80;1.00;;;;;;4983353;28;20183;-74
2023/05/19 08:00:41;;;;;;;5.83;3.37;;;20.20;1.00;;;;;;4980223;28;20218;-74
2023/05/19 08:03:10;;;;;;;6.80;3.50;;;20.40;1.00;;;;;;4981346;28;20850;-74
2023/05/19 08:05:36;;;;;;;5.27;3.40;;;20.50;1.00;;;;;;4989610;28;20444;-75
2023/05/19 08:08:02;;;;;;;5.40;2.83;;;20.70;1.00;;;;;;4987228;28;20442;-73
2023/05/19 08:10:27;;;;;;;8.17;3.30;;;20.80;1.00;;;;;;4988466;28;20221;-74
2023/05/19 08:12:53;;;;;;;5.73;3.10;;;21.10;1.00;;;;;;4985084;28;20812;-72
2023/05/19 08:15:19;;;;;;;8.80;3.07;;;20.80;1.00;;;;;;4987590;28;20195;-74
2023/05/19 08:17:44;;;;;;;6.83;2.87;;;20.90;1.00;;;;;;4986569;28;20186;-74
2023/05/19 08:20:13;;;;;;;7.37;2.93;;;21.10;1.00;;;;;;4989550;28;20237;-74
2023/05/19 08:22:39;;;;;;;8.50;3.00;;;21.10;1.00;;;;;;4989685;28;20185;-75
2023/05/19 08:25:05;;;;;;;11.30;4.40;;;21.60;1.00;;;;;;4986942;28;20441;-76
2023/05/19 08:27:31;;;;;;;6.30;3.03;;;21.40;1.00;;;;;;4984725;28;20179;-76
2023/05/19 08:29:57;;;;;;;10.37;3.40;;;21.50;1.00;;;;;;4983782;28;20439;-76
2023/05/19 08:32:23;;;;;;;5.93;3.00;;;21.50;1.00;;;;;;4990833;28;20464;-75
2023/05/19 08:34:48;;;;;;;8.93;3.07;;;21.40;1.00;;;;;;4985891;28;20282;-74
2023/05/19 08:37:14;;;;;;;8.90;3.13;;;21.40;1.00;;;;;;4986314;28;20638;-75
2023/05/19 08:39:39;;;;;;;6.03;2.87;;;21.80;1.00;;;;;;4992344;28;20657;-74
2023/05/19 08:42:08;;;;;;;8.43;3.47;;;21.90;1.00;;;;;;4981460;28;20207;-76
2023/05/19 08:44:35;;;;;;;5.00;2.77;;;22.00;1.00;;;;;;4985285;28;20202;-75
2023/05/19 08:47:11;;;;;;;6.83;3.27;;;22.70;1.00;;;;;;4985599;28;20438;-75
2023/05/19 08:49:45;;;;;;;8.40;2.90;;;23.80;1.00;;;;;;4978479;28;20468;-76
2023/05/19 08:52:48;;;;;;;6.70;3.10;;;24.80;1.00;;;;;;4983619;28;20488;-75
2023/05/19 08:55:27;;;;;;;5.77;2.90;;;26.10;1.00;;;;;;4984292;28;20944;-73
2023/05/19 08:57:54;;;;;;;4.57;2.80;;;27.60;1.00;;;;;;4985129;28;20456;-75
2023/05/19 09:00:21;;;;;;;5.63;2.70;;;28.10;1.00;;;;;;4982763;28;20215;-77
2023/05/19 09:02:49;;;;;;;10.18;2.70;;;28.60;1.00;;;;;;4984646;28;20183;-76
2023/05/19 09:05:16;;;;;;;5.20;2.60;;;29.10;1.00;;;;;;4984532;28;20187;-76
2023/05/19 09:07:43;;;;;;;5.05;2.67;;;29.00;1.00;;;;;;4981046;28;20193;-75
2023/05/19 09:10:14;;;;;;;7.75;3.05;;;29.30;1.00;;;;;;4985092;28;20198;-77
2023/05/19 09:12:45;;;;;;;7.32;3.03;;;29.40;1.00;;;;;;4983510;28;20171;-76
2023/05/19 09:15:11;;;;;;;6.72;2.92;;;29.30;1.00;;;;;;4983035;28;20186;-75
2023/05/19 09:17:38;;;;;;;7.88;3.60;;;28.80;1.00;;;;;;4985297;28;20193;-76
2023/05/19 09:20:10;;;;;;;7.57;3.22;;;28.30;1.00;;;;;;4987112;28;20190;-75
2023/05/19 09:22:46;;;;;;;6.72;3.30;;;28.30;1.00;;;;;;4986483;28;20191;-75
2023/05/19 09:25:50;;;;;;;8.45;2.97;;;29.00;1.00;;;;;;4980867;28;20594;-76
2023/05/19 09:28:32;;;;;;;4.22;2.63;;;30.10;1.00;;;;;;4985724;28;20225;-77
2023/05/19 09:31:01;;;;;;;8.18;3.28;;;30.80;1.00;;;;;;4980169;28;20744;-75
2023/05/19 09:33:28;;;;;;;7.60;3.67;;;31.10;1.00;;;;;;4982895;28;20194;-75
2023/05/19 09:35:57;;;;;;;6.28;2.58;;;31.10;1.00;;;;;;4983408;28;20281;-75
2023/05/19 09:38:26;;;;;;;11.25;3.70;;;31.50;1.00;;;;;;4981827;28;20274;-76
2023/05/19 09:40:55;;;;;;;4.45;2.58;;;31.70;1.00;;;;;;4984190;28;22221;-75
2023/05/19 09:43:20;;;;;;;5.75;2.95;;;31.80;1.00;;;;;;4987752;28;20210;-76
2023/05/19 09:45:46;;;;;;;5.82;3.00;;;32.10;1.00;;;;;;4980920;28;20205;-76
2023/05/19 09:48:14;;;;;;;7.45;4.43;;;31.60;1.00;;;;;;4985151;28;20202;-76
2023/05/19 09:50:41;;;;;;;6.05;2.50;;;30.60;1.00;;;;;;4983250;28;20194;-75
2023/05/19 09:53:06;;;;;;;7.82;2.90;;;30.30;1.00;;;;;;4977208;28;20681;-77
2023/05/19 09:55:33;;;;;;;7.43;3.13;;;30.30;1.00;;;;;;4976942;28;20332;-75
2023/05/19 09:58:00;;;;;;;7.13;3.60;;;30.30;1.00;;;;;;4984958;28;20313;-75
2023/05/19 10:00:26;;;;;;;6.55;3.13;;;29.60;1.00;;;;;;4986201;28;20202;-75
2023/05/19 10:02:52;;;;;;;8.18;3.15;;;29.80;1.00;;;;;;4980113;28;20182;-75
2023/05/19 10:05:19;;;;;;;5.95;2.90;;;29.80;1.00;;;;;;4985634;28;20179;-76
2023/05/19 10:07:53;;;;;;;6.68;3.40;;;29.60;1.00;;;;;;4985737;28;20241;-75
2023/05/19 10:10:19;;;;;;;8.75;3.35;;;29.40;1.00;;;;;;4983118;28;20234;-75
2023/05/19 10:12:46;;;;;;;6.00;3.00;;;28.90;1.00;;;;;;4972210;28;20191;-76
2023/05/19 10:15:15;;;;;;;6.20;2.80;;;29.60;1.00;;;;;;4972250;28;20611;-75
2023/05/19 10:17:41;;;;;;;7.00;2.85;;;31.40;1.00;;;;;;4984904;28;20182;-76
2023/05/19 10:20:09;;;;;;;6.05;2.72;;;32.80;1.00;;;;;;4987337;28;20274;-75
2023/05/19 10:22:36;;;;;;;4.72;2.88;;;32.90;1.00;;;;;;4985684;28;20183;-77
2023/05/19 10:25:02;;;;;;;4.68;2.72;;;33.90;1.00;;;;;;4980841;28;20685;-75
2023/05/19 10:27:29;;;;;;;5.40;2.70;;;34.80;1.00;;;;;;4981785;28;20197;-76
2023/05/19 10:29:58;;;;;;;5.60;2.67;;;35.20;1.00;;;;;;4976380;28;20184;-75
2023/05/19 10:32:27;;;;;;;7.30;2.67;;;35.20;1.00;;;;;;4982972;28;20288;-73
2023/05/19 10:35:27;;;;;;;5.35;2.75;;;35.30;1.00;;;;;;4993274;28;20187;-76
2023/05/19 10:38:01;;;;;;;5.93;3.28;;;35.40;1.00;;;;;;4985750;28;20265;-76
2023/05/19 10:40:34;;;;;;;7.75;3.30;;;35.90;1.00;;;;;;4971303;28;20210;-76
2023/05/19 10:43:23;;;;;;;5.90;2.85;;;34.60;1.00;;;;;;4977381;28;20270;-75
2023/05/19 10:45:52;;;;;;;6.38;3.00;;;33.40;1.00;;;;;;4980396;28;20182;-77
2023/05/19 10:48:22;;;;;;;8.50;3.33;;;33.20;1.00;;;;;;4983395;28;20186;-74
2023/05/19 10:50:48;;;;;;;4.85;2.65;;;33.30;1.00;;;;;;4987580;28;20198;-76
2023/05/19 10:53:16;;;;;;;4.70;2.70;;;33.70;1.00;;;;;;4980231;28;20194;-76
2023/05/19 10:55:55;;;;;;;5.55;2.60;;;34.60;1.00;;;;;;4978894;28;20183;-76
2023/05/19 10:58:38;;;;;;;9.15;2.60;;;34.50;1.00;;;;;;4981908;28;20186;-76
2023/05/19 11:01:11;;;;;;;5.43;2.67;;;34.40;1.00;;;;;;4982229;28;20225;-76
2023/05/19 11:03:52;;;;;;;9.27;2.85;;;33.90;1.00;;;;;;4979203;28;20294;-75
2023/05/19 11:06:28;;;;;;;5.55;2.75;;;33.20;1.00;;;;;;4977898;28;20186;-76
2023/05/19 11:09:17;;;;;;;7.07;3.08;;;32.70;1.00;;;;;;4986685;28;20193;-77
2023/05/19 11:11:53;;;;;;;4.97;2.90;;;31.70;1.00;;;;;;4986135;28;20238;-76
2023/05/19 11:14:25;;;;;;;8.23;2.78;;;31.40;1.00;;;;;;4985692;28;20294;-76
2023/05/19 11:16:58;;;;;;;8.50;3.15;;;30.60;1.00;;;;;;4983027;28;20194;-76
2023/05/19 11:19:33;;;;;;;7.00;2.95;;;30.90;1.00;;;;;;4988191;28;20257;-76
2023/05/19 11:22:12;;;;;;;10.85;3.25;;;30.70;1.00;;;;;;4985926;28;20207;-76
2023/05/19 11:24:48;;;;;;;6.85;3.15;;;30.20;1.00;;;;;;4978072;28;20702;-75
2023/05/19 11:27:32;;;;;;;4.43;2.83;;;28.90;1.00;;;;;;4986062;28;20272;-75
2023/05/19 11:30:05;;;;;;;5.32;3.22;;;30.00;1.00;;;;;;4983446;28;20354;-75
2023/05/19 11:32:33;;;;;;;4.93;2.83;;;30.10;1.00;;;;;;4981044;28;20395;-72
2023/05/19 11:35:00;;;;;;;5.97;3.53;;;31.00;1.00;;;;;;4985938;28;20191;-76
2023/05/19 11:37:27;;;;;;;7.63;3.20;;;30.60;1.00;;;;;;4991156;28;20190;-76
2023/05/19 11:39:53;;;;;;;6.03;2.97;;;32.30;1.00;;;;;;4987114;28;20272;-78
2023/05/19 11:42:19;;;;;;;7.13;3.33;;;32.30;1.00;;;;;;4990177;28;20269;-75
2023/05/19 11:44:45;;;;;;;9.60;3.20;;;33.20;1.00;;;;;;4981334;28;20628;-75
2023/05/19 11:47:15;;;;;;;5.70;2.85;;;33.50;1.00;;;;;;4989893;28;20186;-75
2023/05/19 11:49:46;;;;;;;5.53;3.20;;;33.60;1.00;;;;;;4987446;28;20179;-76
2023/05/19 11:52:12;;;;;;;6.25;3.10;;;33.10;1.00;;;;;;4987570;28;20198;-76
2023/05/19 11:54:40;;;;;;;6.03;3.17;;;32.60;1.00;;;;;;4994140;28;20191;-76
2023/05/19 11:57:08;;;;;;;8.57;3.08;;;32.60;1.00;;;;;;4989955;28;20182;-75
2023/05/19 11:59:35;;;;;;;8.35;3.22;;;30.70;1.00;;;;;;4983231;28;20646;-75
2023/05/19 12:02:16;;;;;;;5.57;3.00;;;30.70;1.00;;;;;;4988924;28;20245;-76
2023/05/19 12:04:42;;;;;;;5.75;3.25;;;31.10;1.00;;;;;;4987075;28;20719;-76
2023/05/19 12:07:10;;;;;;;5.53;2.90;;;32.40;1.00;;;;;;4988076;28;20191;-76
2023/05/19 12:09:36;;;;;;;7.15;3.33;;;32.90;1.00;;;;;;4990021;28;20216;-76
2023/05/19 12:12:02;;;;;;;9.98;2.85;;;31.80;1.00;;;;;;4989595;28;20235;-77
2023/05/19 12:14:29;;;;;;;8.23;3.30;;;30.00;1.00;;;;;;4986970;28;20230;-75
2023/05/19 12:16:55;;;;;;;6.65;2.90;;;28.70;1.00;;;;;;4985171;28;20241;-76
2023/05/19 12:19:24;;;;;;;5.57;3.10;;;28.30;1.00;;;;;;4987679;28;20191;-76
2023/05/19 12:21:51;;;;;;;6.68;3.53;;;27.60;1.00;;;;;;4985182;28;20210;-75
2023/05/19 12:24:18;;;;;;;7.60;3.33;;;27.10;1.00;;;;;;4985798;28;20213;-76
2023/05/19 12:26:44;;;;;;;8.00;3.30;;;26.60;1.00;;;;;;4985263;28;20183;-77
2023/05/19 12:29:11;;;;;;;8.30;3.47;;;26.20;1.00;;;;;;4981145;28;20183;-78
2023/05/19 12:31:37;;;;;;;4.70;3.00;;;26.10;1.00;;;;;;4987811;28;20210;-72
2023/05/19 12:34:03;;;;;;;9.93;3.97;;;26.10;1.00;;;;;;4981899;28;20179;-75
2023/05/19 12:36:30;;;;;;;11.07;3.40;;;26.00;1.00;;;;;;4990308;28;20198;-73
2023/05/19 12:38:56;;;;;;;5.60;3.30;;;25.70;1.00;;;;;;5003302;28;20206;-74
2023/05/19 12:41:23;;;;;;;8.43;3.40;;;25.40;1.00;;;;;;4991745;28;20689;-74
2023/05/19 12:43:49;;;;;;;6.37;3.50;;;25.60;1.00;;;;;;4987919;28;20297;-73
2023/05/19 12:46:17;;;;;;;7.57;3.20;;;25.90;1.00;;;;;;4981806;28;20171;-74
2023/05/19 12:48:43;;;;;;;6.00;3.27;;;26.00;1.00;;;;;;4984511;28;20269;-74
2023/05/19 12:51:09;;;;;;;10.17;3.80;;;26.30;1.00;;;;;;4991954;28;20337;-74
2023/05/19 12:53:36;;;;;;;4.63;2.90;;;26.50;1.00;;;;;;4981981;28;20210;-75
2023/05/19 12:56:13;;;;;;;4.77;2.83;;;26.30;1.00;;;;;;4983836;28;20757;-76
2023/05/19 12:58:39;;;;;;;5.20;3.00;;;26.10;1.00;;;;;;4987344;28;20589;-74
2023/05/19 13:01:07;;;;;;;9.57;3.30;;;26.00;1.00;;;;;;4983933;28;20230;-75
2023/05/19 13:03:40;;;;;;;4.10;2.70;;;26.10;1.00;;;;;;4984180;28;20210;-73